• Join FlightAware (Why Join?)
  • Login
  • US Flag 
01:02PM EST


 

Airport Tracker/Info


-or-


 

Live Flight TrackerFlight Track Log ✈ UPS5904 ✈ 28-Dec-2013 ✈ PANC - RCTP / TPE

Flight Track Log - Related Links

Times and Time Zones

All times are in EST time to prevent confusion due to time zone crossing. See the UPS5904 flight status page for this flight to view local times or setup timezone preferences in your user account.

Time Position Orientation Groundspeed Altitude Reporting Facility
EST Latitude Longitude Course Direction KTS MPH feet Rate Location/Type
05:12PM 61.1764 -150.0015 350° North 90 104  Level FlightAware ADS-B (PANC)
05:13PM 61.2139 -150.0350 337° Northwest 178 205 2,000 1,680 Climbing FlightAware ADS-B (PANC)
05:13PM 61.2275 -150.0597 319° Northwest 210 242 2,300 1,500 Climbing FlightAware ADS-B (PANC)
05:13PM 61.2364 -150.0965 297° West 230 265 3,000 2,220 Climbing FlightAware ADS-B (PANC)
05:14PM 61.2378 -150.1402 274° West 248 285 3,800 2,460 Climbing FlightAware ADS-B (PANC)
05:14PM 61.2392 -150.1916 273° West 260 299 4,700 3,000 Climbing FlightAware ADS-B (PANC)
05:14PM 61.2405 -150.2416 273° West 264 304 5,800 3,120 Climbing FlightAware ADS-B (PANC)
05:15PM 61.2431 -150.2906 276° West 270 311 6,800 3,120 Climbing FlightAware ADS-B (PANC)
05:15PM 61.2450 -150.3448 274° West 267 307 7,900 3,300 Climbing FlightAware ADS-B (PANC)
05:15PM 61.2463 -150.3966 273° West 270 311 9,000 3,000 Climbing FlightAware ADS-B (PANC)
05:16PM 61.2479 -150.4449 274° West 274 315 9,800 2,700 Climbing FlightAware ADS-B (PANC)
05:16PM 61.2505 -150.5549 273° West 289 333 11,700 2,580 Climbing FlightAware ADS-B (PANC)
05:17PM 61.2532 -150.6757 273° West 327 376 13,400 2,580 Climbing FlightAware ADS-B (PANC)
05:18PM 61.2579 -150.8090 274° West 359 413 15,200 2,940 Climbing FlightAware ADS-B (PANC)
05:18PM 61.2621 -150.9480 274° West 371 427 17,400 3,360 Climbing FlightAware ADS-B (PANC)
05:19PM 61.2647 -151.0917 272° West 377 434 19,700 3,360 Climbing FlightAware ADS-B (PANC)
05:20PM 61.2680 -151.2358 273° West 381 438 21,900 3,000 Climbing FlightAware ADS-B (PANC)
05:20PM 61.2712 -151.3803 273° West 390 449 23,700 2,580 Climbing FlightAware ADS-B (PANC)
05:21PM 61.2745 -151.5369 273° West 397 457 25,400 2,400 Climbing FlightAware ADS-B (PANC)
05:22PM 61.2776 -151.6840 273° West 409 471 26,900 2,220 Climbing FlightAware ADS-B (PANC)
05:22PM 61.2807 -151.8475 272° West 418 481 28,400 2,220 Climbing FlightAware ADS-B (PANC)
05:23PM 61.2835 -152.0050 272° West 421 484 29,900 2,220 Climbing FlightAware ADS-B (PANC)
05:24PM 61.2846 -152.1704 271° West 423 487 31,400 1,560 Climbing FlightAware ADS-B (PANC)
05:24PM 61.2851 -152.3330 270° West 440 506 32,000 1,320 Climbing FlightAware ADS-B (PANC)
05:25PM 61.2855 -152.5061 270° West 444 511 33,200 1,560 Climbing FlightAware ADS-B (PANC)
05:26PM 61.2859 -152.6698 270° West 449 517 34,100 1,680 Climbing FlightAware ADS-B (PANC)
05:26PM 61.2861 -152.8443 270° West 441 507 35,500 1,380 Climbing FlightAware ADS-B (PANC)
05:27PM 61.2860 -153.0151 270° West 446 513 36,000 360 Climbing FlightAware ADS-B (PANC)
05:28PM 61.2857 -153.1903 270° West 450 518 36,000  Level FlightAware ADS-B (PANC)
05:28PM 61.2851 -153.3597 270° West 447 514 36,000  Level FlightAware ADS-B (PANC)
05:29PM 61.2844 -153.5312 270° West 446 513 36,000  Level FlightAware ADS-B (PANC)
05:30PM 61.2836 -153.7059 269° West 445 512 36,000  Level FlightAware ADS-B (PANC)
05:30PM 61.2824 -153.8703 269° West 443 510 36,000  Level FlightAware ADS-B (PANC)
05:31PM 61.2810 -154.0433 269° West 443 510 36,000  Level FlightAware ADS-B (PANC)
05:32PM 61.2795 -154.2124 269° West 444 511 36,000  Level FlightAware ADS-B (PANC)
05:32PM 61.2777 -154.3813 269° West 445 512 36,000  Level FlightAware ADS-B (PANC)
05:33PM 61.2757 -154.5549 269° West 445 512 36,000  Level FlightAware ADS-B (PANC)
05:34PM 61.2735 -154.7264 269° West 447 514 36,000  Level FlightAware ADS-B (PANC)
05:34PM 61.2710 -154.8905 268° West 447 514 36,000  Level FlightAware ADS-B (PANC)
05:35PM 61.2683 -155.0669 268° West 448 516 36,000  Level FlightAware ADS-B (PANC)
05:36PM 61.2654 -155.2372 268° West 448 516 36,000  Level FlightAware ADS-B (PANC)
05:37PM 61.2500 -155.5667 268° West 430 495 36,000  Level Anchorage Center
05:38PM 61.2500 -155.8167 270° West 440 506 36,000  Level Anchorage Center
05:39PM 61.2500 -156.0667 270° West 440 506 36,000  Level Anchorage Center
05:40PM 61.2500 -156.3167 270° West 440 506 36,000  Level Anchorage Center
05:41PM 61.2500 -156.5833 270° West 440 506 36,000  Level Anchorage Center
05:43PM 61.2500 -157.0833 270° West 440 506 36,000  Level Anchorage Center
05:44PM 61.2500 -157.3500 270° West 450 518 36,000  Level Anchorage Center
05:45PM 61.2500 -157.6000 270° West 440 506 36,000  Level Anchorage Center
05:46PM 61.2333 -157.8667 263° West 430 495 36,000  Level Anchorage Center
05:47PM 61.2333 -158.1167 270° West 440 506 36,000  Level Anchorage Center
05:48PM 61.2333 -158.3667 270° West 440 506 36,000  Level Anchorage Center
05:49PM 61.2333 -158.6333 270° West 440 506 36,000  Level Anchorage Center
05:50PM 61.2333 -158.8833 270° West 440 506 36,000  Level Anchorage Center
05:51PM 61.2333 -159.1500 270° West 450 518 36,000  Level Anchorage Center
05:52PM 61.2167 -159.4000 262° West 440 506 36,000  Level Anchorage Center
05:53PM 61.2167 -159.6500 270° West 440 506 36,000  Level Anchorage Center
05:54PM 61.2167 -159.9167 270° West 440 506 36,000  Level Anchorage Center
05:55PM 61.2000 -160.1667 262° West 440 506 36,000  Level Anchorage Center
05:56PM 61.2000 -160.4333 270° West 440 506 36,000  Level Anchorage Center
05:57PM 61.2000 -160.7000 270° West 440 506 36,000  Level Anchorage Center
05:58PM 61.1833 -160.9500 262° West 440 506 36,000  Level Anchorage Center
05:59PM 61.1833 -161.2167 270° West 440 506 36,000  Level Anchorage Center
06:00PM 61.1667 -161.4667 262° West 440 506 36,000  Level Anchorage Center
06:01PM 61.1667 -161.7167 270° West 440 506 36,000  Level Anchorage Center
06:02PM 61.1500 -161.9667 262° West 430 495 36,000  Level Anchorage Center
06:03PM 61.1333 -162.2167 262° West 430 495 36,000  Level Anchorage Center
06:04PM 61.1333 -162.4833 270° West 440 506 36,000  Level Anchorage Center
06:05PM 61.1167 -162.7333 262° West 440 506 36,000  Level Anchorage Center
06:06PM 61.1167 -162.9833 270° West 430 495 36,000  Level Anchorage Center
06:07PM 61.0833 -163.2333 255° West 430 495 36,000  Level Anchorage Center
06:08PM 61.0500 -163.4667 254° West 440 506 36,000  Level Anchorage Center
06:09PM 61.0000 -163.7167 248° West 440 506 36,000  Level Anchorage Center
06:10PM 60.9667 -163.9667 255° West 440 506 36,000  Level Anchorage Center
06:11PM 60.9333 -164.2000 254° West 440 506 36,000  Level Anchorage Center
06:12PM 60.9000 -164.4500 255° West 440 506 36,000  Level Anchorage Center
06:13PM 60.8667 -164.6833 254° West 440 506 36,000  Level Anchorage Center
06:14PM 60.8167 -164.9333 248° West 440 506 36,000  Level Anchorage Center
06:15PM 60.7833 -165.1833 255° West 440 506 36,000  Level Anchorage Center
06:16PM 60.7500 -165.4167 254° West 440 506 36,000  Level Anchorage Center
06:17PM 60.7167 -165.6167 251° West 440 506 36,000  Level Anchorage Center
06:19PM 60.6333 -166.1333 252° West 440 506 36,000  Level Anchorage Center
06:20PM 60.6000 -166.3333 251° West 440 506 36,000  Level Anchorage Center
06:21PM 60.5500 -166.5833 248° West 450 518 36,000  Level Anchorage Center
06:22PM 60.5167 -166.8167 254° West 450 518 36,000  Level Anchorage Center
06:23PM 60.4667 -167.0667 248° West 450 518 36,000  Level Anchorage Center
06:24PM 60.4333 -167.3000 254° West 450 518 36,000  Level Anchorage Center
06:25PM 60.3833 -167.5333 247° West 450 518 36,000  Level Anchorage Center
06:26PM 60.3500 -167.7833 255° West 450 518 36,000  Level Anchorage Center
06:27PM 60.3000 -168.0167 247° West 450 518 36,000  Level Anchorage Center
06:28PM 60.2667 -168.2500 254° West 450 518 36,000  Level Anchorage Center
06:29PM 60.2167 -168.4833 247° West 440 506 36,000  Level Anchorage Center
06:30PM 60.1667 -168.7167 247° West 440 506 36,000  Level Anchorage Center
06:31PM 60.1333 -168.9500 254° West 440 506 36,000  Level Anchorage Center
06:32PM 60.0833 -169.1833 247° West 440 506 36,000  Level Anchorage Center
06:33PM 60.0500 -169.4167 254° West 450 518 36,000  Level Anchorage Center
06:34PM 60.0000 -169.6500 247° West 440 506 36,000  Level Anchorage Center
06:35PM 59.9500 -169.8667 245° Southwest 440 506 36,000  Level Anchorage Center
06:36PM 59.9000 -170.1000 247° West 440 506 36,000  Level Anchorage Center
06:37PM 59.8667 -170.3167 253° West 440 506 36,000  Level Anchorage Center
06:38PM 59.8167 -170.5333 245° Southwest 430 495 36,000  Level Anchorage Center
06:39PM 59.7667 -170.7667 247° West 440 506 36,000  Level Anchorage Center
06:40PM 59.7167 -171.0000 247° West 450 518 36,000  Level Anchorage Center
06:41PM 59.6833 -171.2167 253° West 440 506 36,000  Level Anchorage Center
06:42PM 59.6167 -171.4667 242° Southwest 450 518 36,000  Level Anchorage Center
06:43PM 59.5833 -171.6667 252° West 420 483 36,000  Level Anchorage Center
06:44PM 59.5333 -171.9000 247° West 440 506 36,000  Level Anchorage Center
06:45PM 59.4833 -172.1333 247° West 460 529 36,000  Level Anchorage Center
06:46PM 59.4333 -172.3500 246° West 440 506 36,000  Level Anchorage Center
06:47PM 59.4000 -172.5833 254° West 440 506 36,000  Level Anchorage Center
06:48PM 59.3500 -172.8000 246° West 440 506 36,000  Level Anchorage Center
06:49PM 59.3000 -173.0333 247° West 440 506 36,000  Level Anchorage Center
06:50PM 59.2500 -173.2500 246° West 440 506 36,000  Level Anchorage Center
06:51PM 59.2000 -173.4833 247° West 440 506 36,000  Level Anchorage Center
06:52PM 59.1500 -173.7000 246° West 440 506 36,000  Level Anchorage Center
06:53PM 59.1000 -173.9167 246° West 430 495 36,000  Level Anchorage Center
06:54PM 59.0667 -174.1333 253° West 440 506 36,000  Level Anchorage Center
06:55PM 59.0000 -174.3500 239° Southwest 440 506 36,000  Level Anchorage Center
06:56PM 58.9667 -174.5667 253° West 440 506 36,000  Level Anchorage Center
06:59PM 58.8500 -175.1500 246° West 442 509 36,000  Level Anchorage Center
06:59PM 58.8000 -175.3167 245° Southwest 450 518 36,000  Level Anchorage Center
07:00PM 58.7500 -175.5333 246° West 450 518 36,000  Level Anchorage Center
07:01PM 58.7000 -175.7500 246° West 440 506 36,000  Level Anchorage Center
07:04PM 58.5500 -176.3500 245° Southwest 440 506 36,000  Level Anchorage Center
07:05PM 58.5557 -176.4126 245° Southwest 442 509 36,000  Level FlightAware Transoceanic
07:05PM 58.5000 -176.5667 246° West 440 506 36,000  Level Anchorage Center
07:06PM 58.4500 -176.7833 246° West 440 506 36,000  Level Anchorage Center
07:07PM 58.4000 -176.9833 245° Southwest 430 495 36,000  Level Anchorage Center
07:08PM 58.3500 -177.1500 240° Southwest 440 506 36,000  Level Anchorage Center
07:18PM 57.8333 -179.2167 243° Southwest 437 503 36,000  Level Anchorage Center
07:27PM 57.3000 178.8833 241° Southwest 433 498 36,000  Level Anchorage Center
07:35PM 56.8333 177.3500 240° Southwest 443 510 36,000  Level Anchorage Center
07:37PM 56.7167 177.0000 240° Southwest 437 503 36,000  Level Anchorage Center
07:47PM 56.1333 175.2167 238° Southwest 431 496 36,000  Level Anchorage Center
07:51PM 55.8667 174.5000 237° Southwest 440 506 36,000  Level Anchorage Center
07:52PM 55.7866 174.2553 237° Southwest 437 503 36,000  Level FlightAware Transoceanic
07:52PM 55.8167 174.3500 239° Southwest 430 495 36,000  Level Anchorage Center
07:53PM 55.7429 174.1169 237° Southwest 431 496 36,000  Level FlightAware Transoceanic
07:53PM 55.7500 174.1500 239° Southwest 430 495 36,000  Level Anchorage Center
07:54PM 55.6768 173.9358 237° Southwest 431 496 36,000  Level FlightAware Transoceanic
07:54PM 55.6667 173.9667 231° Southwest 430 495 36,000  Level Anchorage Center
07:55PM 55.6105 173.7552 237° Southwest 431 496 36,000  Level FlightAware Transoceanic
07:55PM 55.6167 173.8000 242° Southwest 440 506 36,000  Level Anchorage Center
07:56PM 55.5440 173.5753 237° Southwest 431 496 36,000  Level FlightAware Transoceanic
07:56PM 55.5500 173.6000 240° Southwest 440 506 36,000  Level Anchorage Center
07:57PM 55.4833 173.4333 235° Southwest 450 518 36,000  Level Anchorage Center
07:58PM 55.4000 173.2333 234° Southwest 450 518 36,000  Level Anchorage Center
07:59PM 55.3500 173.0833 240° Southwest 450 518 36,000  Level Anchorage Center
08:00PM 55.2667 172.8833 234° Southwest 450 518 36,000  Level Anchorage Center
08:01PM 55.2167 172.7167 242° Southwest 440 506 36,000  Level Anchorage Center
08:02PM 55.1333 172.5167 234° Southwest 450 518 36,000  Level Anchorage Center
08:03PM 55.0667 172.3333 238° Southwest 440 506 36,000  Level Anchorage Center
08:04PM 55.0000 172.1667 235° Southwest 460 529 36,000  Level Anchorage Center
08:05PM 54.9167 171.9667 234° Southwest 450 518 36,000  Level Anchorage Center
08:06PM 54.8500 171.8167 232° Southwest 450 518 36,000  Level Anchorage Center
08:07PM 54.7833 171.6333 238° Southwest 440 506 36,000  Level Anchorage Center
08:08PM 54.7167 171.4833 232° Southwest 430 495 36,000  Level Anchorage Center
08:09PM 54.6333 171.3000 232° Southwest 440 506 36,000  Level Anchorage Center
08:10PM 54.5667 171.1167 238° Southwest 430 495 36,000  Level Anchorage Center
08:11PM 54.5000 170.9667 233° Southwest 430 495 36,000  Level Anchorage Center
08:12PM 54.4333 170.7833 238° Southwest 430 495 36,000  Level Anchorage Center
08:13PM 54.3667 170.6500 229° Southwest 440 506 36,000  Level Anchorage Center
08:14PM 54.2833 170.4667 232° Southwest 430 495 36,000  Level Anchorage Center
08:15PM 54.2167 170.3167 233° Southwest 460 529 36,000  Level Anchorage Center
08:16PM 54.1500 170.1333 238° Southwest 430 495 36,000  Level Anchorage Center
08:17PM 54.0667 169.9500 232° Southwest 450 518 36,000  Level Anchorage Center
08:18PM 54.0000 169.8000 233° Southwest 450 518 36,000  Level Anchorage Center
08:19PM 53.9167 169.6167 232° Southwest 450 518 36,000  Level Anchorage Center
08:20PM 53.8500 169.4667 233° Southwest 420 483 36,000  Level Anchorage Center
08:21PM 53.7667 169.2833 232° Southwest 450 518 36,000  Level Anchorage Center
08:22PM 53.7000 169.1333 233° Southwest 450 518 36,000  Level Anchorage Center
08:23PM 53.6333 168.9333 241° Southwest 460 529 36,000  Level Anchorage Center
08:24PM 53.5833 168.7833 241° Southwest 450 518 36,000  Level Anchorage Center
08:25PM 53.5000 168.5000 240° Southwest 442 509 36,000  Level Anchorage Center
08:27PM 53.4167 168.2333 240° Southwest 449 517 36,000  Level Anchorage Center
08:35PM 52.8833 166.8000 239° Southwest 444 511 36,000  Level Anchorage Center
08:44PM 52.2667 165.1500 237° Southwest 446 513 36,000  Level Anchorage Center
08:53PM 51.6500 163.6500 236° Southwest 445 512 36,000  Level Anchorage Center
08:54PM 51.6733 163.6800 236° Southwest 446 513 36,000  Level FlightAware Transoceanic
08:54PM 51.6000 163.5167 236° Southwest 444 511 36,000  Level Anchorage Center
09:04PM 50.9333 161.9500 235° Southwest 445 512 36,000  Level Anchorage Center
09:13PM 50.2333 160.4333 234° Southwest 431 496 36,000  Level Anchorage Center
09:13PM 50.2000 160.3833 234° Southwest 440 506 36,000  Level Anchorage Center
09:14PM 50.2247 160.4045 234° Southwest 445 512 36,000  Level FlightAware Transoceanic
09:15PM 50.1527 160.2525 233° Southwest 445 512 36,000  Level FlightAware Transoceanic
09:16PM 50.0805 160.1009 233° Southwest 445 512 36,000  Level FlightAware Transoceanic
09:17PM 50.0081 159.9498 233° Southwest 445 512 36,000  Level FlightAware Transoceanic
09:18PM 49.9355 159.7992 233° Southwest 445 512 36,000  Level FlightAware Transoceanic
09:19PM 49.8468 159.6187 233° Southwest 431 496 36,000  Level FlightAware Transoceanic
09:20PM 49.7863 159.4964 234° Southwest 440 506 36,000  Level FlightAware Transoceanic
09:21PM 49.7167 159.3500 233° Southwest 440 506 36,000  Level FlightAware Transoceanic
09:22PM 49.6460 159.2057 233° Southwest 440 506 36,000  Level FlightAware Transoceanic
09:23PM 49.5751 159.0618 233° Southwest 440 506 36,000  Level FlightAware Transoceanic
09:24PM 49.5041 158.9184 233° Southwest 440 506 36,000  Level FlightAware Transoceanic
09:25PM 49.4329 158.7753 232° Southwest 440 506 36,000  Level FlightAware Transoceanic
09:26PM 49.3615 158.6327 232° Southwest 440 506 36,000  Level FlightAware Transoceanic
09:27PM 49.2900 158.4904 232° Southwest 440 506 36,000  Level FlightAware Transoceanic
09:28PM 49.2182 158.3486 232° Southwest 440 506 36,000  Level FlightAware Transoceanic
09:29PM 49.1463 158.2072 232° Southwest 440 506 36,000  Level FlightAware Transoceanic
09:30PM 49.0743 158.0663 232° Southwest 440 506 36,000  Level FlightAware Transoceanic
09:31PM 49.0020 157.9257 232° Southwest 440 506 36,000  Level FlightAware Transoceanic
09:32PM 48.9296 157.7855 232° Southwest 440 506 36,000  Level FlightAware Transoceanic
09:33PM 48.8570 157.6458 232° Southwest 440 506 36,000  Level FlightAware Transoceanic
09:34PM 48.7842 157.5064 232° Southwest 440 506 36,000  Level FlightAware Transoceanic
09:35PM 48.7113 157.3674 231° Southwest 440 506 36,000  Level FlightAware Transoceanic
09:36PM 48.6382 157.2289 231° Southwest 440 506 36,000  Level FlightAware Transoceanic
09:37PM 48.5650 157.0907 231° Southwest 440 506 36,000  Level FlightAware Transoceanic
09:38PM 48.4916 156.9530 231° Southwest 440 506 36,000  Level FlightAware Transoceanic
09:39PM 48.4180 156.8156 231° Southwest 440 506 36,000  Level FlightAware Transoceanic
09:40PM 48.3442 156.6787 231° Southwest 440 506 36,000  Level FlightAware Transoceanic
09:41PM 48.2703 156.5421 231° Southwest 440 506 36,000  Level FlightAware Transoceanic
09:42PM 48.1963 156.4060 231° Southwest 440 506 36,000  Level FlightAware Transoceanic
09:43PM 48.1220 156.2702 231° Southwest 440 506 36,000  Level FlightAware Transoceanic
09:44PM 48.0476 156.1348 231° Southwest 440 506 36,000  Level FlightAware Transoceanic
09:45PM 47.9731 155.9998 230° Southwest 440 506 36,000  Level FlightAware Transoceanic
09:46PM 47.8984 155.8652 230° Southwest 440 506 36,000  Level FlightAware Transoceanic
09:47PM 47.8235 155.7310 230° Southwest 440 506 36,000  Level FlightAware Transoceanic
09:48PM 47.7485 155.5972 230° Southwest 440 506 36,000  Level FlightAware Transoceanic
09:49PM 47.6733 155.4638 230° Southwest 440 506 36,000  Level FlightAware Transoceanic
09:50PM 47.5980 155.3307 230° Southwest 440 506 36,000  Level FlightAware Transoceanic
09:51PM 47.5225 155.1981 230° Southwest 440 506 36,000  Level FlightAware Transoceanic
09:52PM 47.4469 155.0658 230° Southwest 440 506 36,000  Level FlightAware Transoceanic
09:53PM 47.3711 154.9339 230° Southwest 440 506 36,000  Level FlightAware Transoceanic
09:54PM 47.2952 154.8023 230° Southwest 440 506 36,000  Level FlightAware Transoceanic
09:55PM 47.2191 154.6712 229° Southwest 440 506 36,000  Level FlightAware Transoceanic
09:56PM 47.1428 154.5404 229° Southwest 440 506 36,000  Level FlightAware Transoceanic
09:57PM 47.0665 154.4100 229° Southwest 440 506 36,000  Level FlightAware Transoceanic
09:58PM 46.9899 154.2800 229° Southwest 440 506 36,000  Level FlightAware Transoceanic
09:59PM 46.9132 154.1503 229° Southwest 440 506 36,000  Level FlightAware Transoceanic
10:00PM 46.8364 154.0211 229° Southwest 440 506 36,000  Level FlightAware Transoceanic
10:01PM 46.7594 153.8922 229° Southwest 440 506 36,000  Level FlightAware Transoceanic
10:02PM 46.6823 153.7636 229° Southwest 440 506 36,000  Level FlightAware Transoceanic
10:03PM 46.6051 153.6354 229° Southwest 440 506 36,000  Level FlightAware Transoceanic
10:04PM 46.5277 153.5076 229° Southwest 440 506 36,000  Level FlightAware Transoceanic
10:05PM 46.4501 153.3802 228° Southwest 440 506 36,000  Level FlightAware Transoceanic
10:06PM 46.3725 153.2531 228° Southwest 440 506 36,000  Level FlightAware Transoceanic
10:07PM 46.2946 153.1264 228° Southwest 440 506 36,000  Level FlightAware Transoceanic
10:08PM 46.2223 153.0092 228° Southwest  Level FlightAware Approximate
10:09PM 46.1499 152.8923 228° Southwest  Level FlightAware Approximate
10:10PM 46.1552 152.9019 228° Southwest  Level FlightAware Approximate
10:11PM 46.0823 152.7859 228° Southwest  Level FlightAware Approximate
10:12PM 46.0092 152.6702 228° Southwest  Level FlightAware Approximate
10:13PM 45.9360 152.5548 228° Southwest  Level FlightAware Approximate
10:14PM 45.8627 152.4397 228° Southwest  Level FlightAware Approximate
10:15PM 45.7892 152.3249 227° Southwest  Level FlightAware Approximate
10:16PM 45.7157 152.2104 227° Southwest  Level FlightAware Approximate
10:17PM 45.6420 152.0962 227° Southwest  Level FlightAware Approximate
10:18PM 45.5682 151.9823 227° Southwest  Level FlightAware Approximate
10:19PM 45.4944 151.8687 227° Southwest  Level FlightAware Approximate
10:20PM 45.4204 151.7554 227° Southwest  Level FlightAware Approximate
10:21PM 45.3462 151.6424 227° Southwest  Level FlightAware Approximate
10:22PM 45.2720 151.5297 227° Southwest  Level FlightAware Approximate
10:23PM 45.1977 151.4173 227° Southwest  Level FlightAware Approximate
10:24PM 45.1233 151.3052 227° Southwest  Level FlightAware Approximate
10:25PM 45.0487 151.1934 227° Southwest  Level FlightAware Approximate
10:26PM 44.9740 151.0819 227° Southwest  Level FlightAware Approximate
10:27PM 44.8993 150.9706 227° Southwest  Level FlightAware Approximate
10:28PM 44.8244 150.8597 226° Southwest  Level FlightAware Approximate
10:29PM 44.7494 150.7490 226° Southwest  Level FlightAware Approximate
10:30PM 44.6743 150.6386 226° Southwest  Level FlightAware Approximate
10:31PM 44.5991 150.5285 226° Southwest  Level FlightAware Approximate
10:32PM 44.5238 150.4187 226° Southwest  Level FlightAware Approximate
10:33PM 44.4484 150.3092 226° Southwest  Level FlightAware Approximate
10:34PM 44.3729 150.2000 226° Southwest  Level FlightAware Approximate
10:35PM 44.2973 150.0910 226° Southwest  Level FlightAware Approximate
10:36PM 44.2216 149.9823 226° Southwest  Level FlightAware Approximate
10:37PM 44.1458 149.8739 226° Southwest  Level FlightAware Approximate
10:38PM 44.0698 149.7658 226° Southwest  Level FlightAware Approximate
10:39PM 43.9938 149.6580 226° Southwest  Level FlightAware Approximate
10:40PM 43.9177 149.5504 226° Southwest  Level FlightAware Approximate
10:41PM 43.8415 149.4431 225° Southwest  Level FlightAware Approximate
10:42PM 43.7651 149.3361 225° Southwest  Level FlightAware Approximate
10:43PM 43.6887 149.2293 225° Southwest  Level FlightAware Approximate
10:44PM 43.6122 149.1229 225° Southwest  Level FlightAware Approximate
10:45PM 43.5356 149.0167 225° Southwest  Level FlightAware Approximate
10:46PM 43.4588 148.9107 225° Southwest  Level FlightAware Approximate
10:47PM 43.3820 148.8051 225° Southwest  Level FlightAware Approximate
10:48PM 43.3051 148.6997 225° Southwest  Level FlightAware Approximate
10:49PM 43.2281 148.5945 225° Southwest  Level FlightAware Approximate
10:50PM 43.1510 148.4897 225° Southwest  Level FlightAware Approximate
10:51PM 43.0738 148.3851 225° Southwest  Level FlightAware Approximate
10:52PM 42.9965 148.2807 225° Southwest  Level FlightAware Approximate
10:53PM 42.9191 148.1767 225° Southwest  Level FlightAware Approximate
10:54PM 42.8416 148.0729 225° Southwest  Level FlightAware Approximate
10:55PM 42.7640 147.9693 224° Southwest  Level FlightAware Approximate
10:56PM 42.6864 147.8660 224° Southwest  Level FlightAware Approximate
10:57PM 42.6086 147.7630 224° Southwest  Level FlightAware Approximate
10:58PM 42.5307 147.6602 224° Southwest  Level FlightAware Approximate
10:59PM 42.4528 147.5577 224° Southwest  Level FlightAware Approximate
11:00PM 42.3748 147.4553 225° Southwest  Level FlightAware Approximate
11:01PM 42.2975 147.3522 225° Southwest  Level FlightAware Approximate
11:02PM 42.2200 147.2493 225° Southwest  Level FlightAware Approximate
11:03PM 42.1425 147.1467 224° Southwest  Level FlightAware Approximate
11:04PM 42.0649 147.0444 224° Southwest  Level FlightAware Approximate
11:05PM 41.9872 146.9423 224° Southwest  Level FlightAware Approximate
11:06PM 41.9093 146.8405 224° Southwest  Level FlightAware Approximate
11:07PM 41.8308 146.7397 224° Southwest  Level FlightAware Approximate
11:08PM 41.7522 146.6392 224° Southwest  Level FlightAware Approximate
11:09PM 41.6735 146.5390 224° Southwest  Level FlightAware Approximate
11:10PM 41.5948 146.4389 224° Southwest  Level FlightAware Approximate
11:11PM 41.5159 146.3392 223° Southwest  Level FlightAware Approximate
11:12PM 41.4370 146.2396 223° Southwest  Level FlightAware Approximate
11:13PM 41.3580 146.1403 223° Southwest  Level FlightAware Approximate
11:14PM 41.2789 146.0413 223° Southwest  Level FlightAware Approximate
11:15PM 41.1997 145.9424 223° Southwest  Level FlightAware Approximate
11:16PM 41.1205 145.8439 223° Southwest  Level FlightAware Approximate
11:17PM 41.0411 145.7455 223° Southwest  Level FlightAware Approximate
11:18PM 40.9617 145.6474 223° Southwest  Level FlightAware Approximate
11:19PM 40.8821 145.5496 223° Southwest  Level FlightAware Approximate
11:20PM 40.8026 145.4519 223° Southwest  Level FlightAware Approximate
11:21PM 40.7229 145.3545 223° Southwest  Level FlightAware Approximate
11:22PM 40.6431 145.2574 223° Southwest  Level FlightAware Approximate
11:23PM 40.5633 145.1604 223° Southwest  Level FlightAware Approximate
11:24PM 40.4833 145.0637 223° Southwest  Level FlightAware Approximate
11:25PM 40.4071 144.9632 238° Southwest  Level FlightAware Approximate
11:26PM 40.3493 144.8425 238° Southwest  Level FlightAware Approximate
11:27PM 40.2915 144.7219 238° Southwest  Level FlightAware Approximate
11:28PM 40.2335 144.6016 238° Southwest  Level FlightAware Approximate
11:29PM 40.1754 144.4815 238° Southwest  Level FlightAware Approximate
11:30PM 40.1172 144.3616 238° Southwest  Level FlightAware Approximate
11:31PM 40.0589 144.2419 238° Southwest  Level FlightAware Approximate
11:32PM 40.0004 144.1224 237° Southwest  Level FlightAware Approximate
11:33PM 39.9418 144.0031 237° Southwest  Level FlightAware Approximate
11:34PM 39.8831 143.8840 237° Southwest  Level FlightAware Approximate
11:35PM 39.8245 143.7649 238° Southwest  Level FlightAware Approximate
11:36PM 39.7671 143.6449 238° Southwest  Level FlightAware Approximate
11:37PM 39.7096 143.5251 238° Southwest  Level FlightAware Approximate
11:38PM 39.6520 143.4055 238° Southwest  Level FlightAware Approximate
11:39PM 39.5942 143.2861 238° Southwest  Level FlightAware Approximate
11:40PM 39.5363 143.1670 238° Southwest  Level FlightAware Approximate
11:41PM 39.4783 143.0480 238° Southwest  Level FlightAware Approximate
11:42PM 39.4202 142.9292 238° Southwest  Level FlightAware Approximate
11:43PM 39.3620 142.8106 238° Southwest  Level FlightAware Approximate
11:44PM 39.3036 142.6922 238° Southwest  Level FlightAware Approximate
11:45PM 39.2451 142.5740 237° Southwest  Level FlightAware Approximate
11:46PM 39.1805 142.4619 230° Southwest  Level FlightAware Approximate
11:47PM 39.1099 142.3554 230° Southwest  Level FlightAware Approximate
11:48PM 39.0393 142.2491 229° Southwest  Level FlightAware Approximate
11:49PM 38.9686 142.1431 229° Southwest  Level FlightAware Approximate
11:50PM 38.8978 142.0373 229° Southwest  Level FlightAware Approximate
11:51PM 38.8269 141.9317 229° Southwest  Level FlightAware Approximate
11:52PM 38.7559 141.8262 229° Southwest  Level FlightAware Approximate
11:53PM 38.6848 141.7211 229° Southwest  Level FlightAware Approximate
11:54PM 38.6136 141.6161 229° Southwest  Level FlightAware Approximate
11:55PM 38.5423 141.5113 229° Southwest  Level FlightAware Approximate
11:56PM 38.4709 141.4067 229° Southwest  Level FlightAware Approximate
11:57PM 38.3995 141.3023 229° Southwest  Level FlightAware Approximate
11:58PM 38.3279 141.1982 229° Southwest  Level FlightAware Approximate
11:59PM 38.2562 141.0942 229° Southwest  Level FlightAware Approximate
12:00AM 38.1845 140.9905 229° Southwest  Level FlightAware Approximate
12:01AM 38.1036 140.9045 198° South  Level FlightAware Approximate
12:02AM 38.0003 140.8623 198° South  Level FlightAware Approximate
12:03AM 37.8969 140.8202 198° South  Level FlightAware Approximate
12:04AM 37.7935 140.7782 198° South  Level FlightAware Approximate
12:05AM 37.6900 140.7363 198° South  Level FlightAware Approximate
12:06AM 37.5869 140.6935 202° Southwest  Level FlightAware Approximate
12:07AM 37.4857 140.6440 198° South  Level FlightAware Approximate
12:08AM 37.3826 140.6011 198° South  Level FlightAware Approximate
12:09AM 37.2795 140.5582 198° South  Level FlightAware Approximate
12:10AM 37.1764 140.5155 198° South  Level FlightAware Approximate
12:11AM 37.0732 140.4729 198° South  Level FlightAware Approximate
12:12AM 36.9701 140.4304 198° South  Level FlightAware Approximate
12:13AM 36.8669 140.3880 198° South  Level FlightAware Approximate
12:14AM 36.7637 140.3458 198° South  Level FlightAware Approximate
12:15AM 36.6974 140.2490 242° Southwest  Level FlightAware Approximate
12:16AM 36.6463 140.1295 242° Southwest  Level FlightAware Approximate
12:17AM 36.5950 140.0102 242° Southwest  Level FlightAware Approximate
12:17AM 36.3030 138.9140 242° Southwest 375 432 36,000  Level FlightAware ADS-B
12:17AM 36.2580 138.8580 225° Southwest 373 429 36,000  Level FlightAware ADS-B
12:18AM 36.2120 138.7990 226° Southwest 371 427 36,000  Level FlightAware ADS-B
12:21AM 36.0685 138.5110 238° Southwest  Level Estimated
12:22AM 36.0112 138.3969 238° Southwest  Level Estimated
12:23AM 35.9539 138.2829 238° Southwest  Level Estimated
12:24AM 35.8965 138.1691 238° Southwest  Level Estimated
12:25AM 35.8389 138.0555 238° Southwest  Level Estimated
12:26AM 35.7813 137.9420 238° Southwest  Level Estimated
12:27AM 35.7235 137.8288 238° Southwest  Level Estimated
12:28AM 35.6656 137.7156 238° Southwest  Level Estimated
12:29AM 35.6077 137.6026 238° Southwest  Level Estimated
12:30AM 35.5496 137.4898 238° Southwest  Level Estimated
12:31AM 35.4914 137.3772 238° Southwest  Level Estimated
12:32AM 35.4331 137.2647 238° Southwest  Level Estimated
12:33AM 35.3747 137.1524 238° Southwest  Level Estimated
12:34AM 35.3162 137.0402 237° Southwest  Level Estimated
12:35AM 35.2576 136.9282 237° Southwest  Level Estimated
12:36AM 35.1990 136.8164 237° Southwest  Level Estimated
12:37AM 35.1401 136.7047 237° Southwest  Level Estimated
12:38AM 35.0812 136.5932 237° Southwest  Level Estimated
12:39AM 35.0222 136.4818 237° Southwest  Level Estimated
12:40AM 34.9631 136.3706 237° Southwest  Level Estimated
12:41AM 34.9039 136.2596 237° Southwest  Level Estimated
12:42AM 34.8446 136.1487 237° Southwest  Level Estimated
12:43AM 34.7852 136.0380 237° Southwest  Level Estimated
12:44AM 34.7257 135.9275 237° Southwest  Level Estimated
12:45AM 34.6661 135.8171 237° Southwest  Level Estimated
12:46AM 34.6064 135.7069 237° Southwest  Level Estimated
12:47AM 34.5466 135.5968 237° Southwest  Level Estimated
12:48AM 34.4866 135.4869 237° Southwest  Level Estimated
12:49AM 34.4266 135.3771 236° Southwest  Level Estimated
12:50AM 34.3665 135.2675 236° Southwest  Level Estimated
12:51AM 34.3063 135.1581 236° Southwest  Level Estimated
12:52AM 34.2460 135.0488 236° Southwest  Level Estimated
12:53AM 34.1856 134.9397 236° Southwest  Level Estimated
12:54AM 34.1251 134.8307 236° Southwest  Level Estimated
12:55AM 34.0645 134.7219 236° Southwest  Level Estimated
12:56AM 34.0039 134.6132 236° Southwest  Level Estimated
12:57AM 33.9431 134.5047 236° Southwest  Level Estimated
12:58AM 33.8822 134.3963 236° Southwest  Level Estimated
12:59AM 33.8213 134.2881 236° Southwest  Level Estimated
01:00AM 33.7602 134.1801 236° Southwest  Level Estimated
01:01AM 33.6990 134.0722 236° Southwest  Level Estimated
01:02AM 33.6378 133.9645 236° Southwest  Level Estimated
01:03AM 33.5764 133.8569 236° Southwest  Level Estimated
01:04AM 33.5150 133.7495 236° Southwest  Level Estimated
01:05AM 33.4535 133.6422 236° Southwest  Level Estimated
01:06AM 33.3918 133.5351 235° Southwest  Level Estimated
01:07AM 33.3301 133.4281 235° Southwest  Level Estimated
01:08AM 33.2683 133.3213 235° Southwest  Level Estimated
01:09AM 33.2064 133.2146 235° Southwest  Level Estimated
01:10AM 33.1444 133.1081 235° Southwest  Level Estimated
01:11AM 33.0824 133.0017 235° Southwest  Level Estimated
01:12AM 33.0202 132.8955 235° Southwest  Level Estimated
01:13AM 32.9579 132.7894 235° Southwest  Level Estimated
01:14AM 32.8956 132.6835 235° Southwest  Level Estimated
01:15AM 32.8331 132.5777 235° Southwest  Level Estimated
01:16AM 32.7706 132.4721 235° Southwest  Level Estimated
01:17AM 32.7080 132.3666 235° Southwest  Level Estimated
01:18AM 32.6453 132.2613 235° Southwest  Level Estimated
01:19AM 32.5825 132.1561 235° Southwest  Level Estimated
01:20AM 32.5196 132.0511 235° Southwest  Level Estimated
01:21AM 32.4567 131.9462 235° Southwest  Level Estimated
01:22AM 32.3936 131.8415 235° Southwest  Level Estimated
01:23AM 32.3305 131.7369 234° Southwest  Level Estimated
01:24AM 32.2673 131.6325 234° Southwest  Level Estimated
01:25AM 32.2039 131.5282 234° Southwest  Level Estimated
01:26AM 32.1405 131.4240 234° Southwest  Level Estimated
01:27AM 32.0771 131.3200 234° Southwest  Level Estimated
01:28AM 32.0135 131.2161 234° Southwest  Level Estimated
01:29AM 31.9499 131.1124 234° Southwest  Level Estimated
01:30AM 31.8861 131.0088 234° Southwest  Level Estimated
01:31AM 31.8223 130.9054 234° Southwest  Level Estimated
01:32AM 31.7584 130.8021 234° Southwest  Level Estimated
01:33AM 31.6944 130.6990 234° Southwest  Level Estimated
01:34AM 31.6304 130.5960 234° Southwest  Level Estimated
01:35AM 31.5662 130.4931 234° Southwest  Level Estimated
01:36AM 31.5020 130.3904 234° Southwest  Level Estimated
01:37AM 31.4377 130.2878 234° Southwest  Level Estimated
01:38AM 31.3733 130.1854 234° Southwest  Level Estimated
01:39AM 31.3088 130.0831 234° Southwest  Level Estimated
01:40AM 31.2442 129.9809 234° Southwest  Level Estimated
01:41AM 31.1796 129.8789 233° Southwest  Level Estimated
01:42AM 31.1149 129.7770 233° Southwest  Level Estimated
01:43AM 31.0501 129.6753 233° Southwest  Level Estimated
01:44AM 30.9852 129.5737 233° Southwest  Level Estimated
01:45AM 30.9202 129.4722 233° Southwest  Level Estimated
01:46AM 30.8552 129.3709 233° Southwest  Level Estimated
01:47AM 30.7901 129.2697 233° Southwest  Level Estimated
01:48AM 30.7249 129.1686 233° Southwest  Level Estimated
01:49AM 30.6596 129.0677 233° Southwest  Level Estimated
01:50AM 30.5942 128.9669 233° Southwest  Level Estimated
01:51AM 30.5288 128.8663 233° Southwest  Level Estimated
01:52AM 30.4633 128.7658 233° Southwest  Level Estimated
01:53AM 30.3977 128.6654 233° Southwest  Level Estimated
01:54AM 30.3321 128.5652 233° Southwest  Level Estimated
01:55AM 30.2663 128.4651 233° Southwest  Level Estimated
01:56AM 30.2005 128.3651 233° Southwest  Level Estimated
01:57AM 30.1346 128.2653 233° Southwest  Level Estimated
01:58AM 30.0687 128.1656 233° Southwest  Level Estimated
01:59AM 30.0026 128.0660 233° Southwest  Level Estimated
02:00AM 29.9365 127.9666 233° Southwest  Level Estimated
02:01AM 29.8703 127.8672 232° Southwest  Level Estimated
02:02AM 29.8041 127.7681 232° Southwest  Level Estimated
02:03AM 29.7377 127.6690 232° Southwest  Level Estimated
02:04AM 29.6713 127.5701 232° Southwest  Level Estimated
02:05AM 29.6048 127.4713 232° Southwest  Level Estimated
02:06AM 29.5383 127.3727 232° Southwest  Level Estimated
02:07AM 29.4716 127.2742 232° Southwest  Level Estimated
02:08AM 29.4049 127.1758 232° Southwest  Level Estimated
02:09AM 29.3382 127.0775 232° Southwest  Level Estimated
02:10AM 29.2713 126.9794 232° Southwest  Level Estimated
02:11AM 29.2044 126.8814 232° Southwest  Level Estimated
02:12AM 29.1374 126.7835 232° Southwest  Level Estimated
02:13AM 29.0704 126.6858 232° Southwest  Level Estimated
02:14AM 29.0032 126.5881 232° Southwest  Level Estimated
02:15AM 28.9360 126.4906 232° Southwest  Level Estimated
02:16AM 28.8688 126.3933 232° Southwest  Level Estimated
02:17AM 28.8014 126.2960 232° Southwest  Level Estimated
02:18AM 28.7340 126.1989 232° Southwest  Level Estimated
02:19AM 28.6665 126.1019 232° Southwest  Level Estimated
02:20AM 28.5990 126.0051 232° Southwest  Level Estimated
02:21AM 28.5314 125.9083 232° Southwest  Level Estimated
02:22AM 28.4637 125.8117 231° Southwest  Level Estimated
02:23AM 28.3959 125.7152 231° Southwest  Level Estimated
02:24AM 28.3281 125.6188 231° Southwest  Level Estimated
02:25AM 28.2602 125.5226 231° Southwest  Level Estimated
02:26AM 28.1923 125.4265 231° Southwest  Level Estimated
02:27AM 28.1242 125.3305 231° Southwest  Level Estimated
02:28AM 28.0562 125.2346 231° Southwest  Level Estimated
02:29AM 27.9880 125.1388 231° Southwest  Level Estimated
02:30AM 27.9198 125.0432 231° Southwest  Level Estimated
02:31AM 27.8515 124.9476 231° Southwest  Level Estimated
02:32AM 27.7831 124.8522 231° Southwest  Level Estimated
02:33AM 27.7147 124.7570 231° Southwest  Level Estimated
02:34AM 27.6462 124.6618 231° Southwest  Level Estimated
02:35AM 27.5777 124.5668 231° Southwest  Level Estimated
02:36AM 27.5091 124.4718 231° Southwest  Level Estimated
02:37AM 27.4404 124.3771 231° Southwest  Level Estimated
02:38AM 27.3717 124.2824 231° Southwest  Level Estimated
02:39AM 27.3028 124.1878 231° Southwest  Level Estimated
02:40AM 27.2340 124.0934 231° Southwest  Level Estimated
02:41AM 27.1650 123.9990 231° Southwest  Level Estimated
02:42AM 27.0960 123.9048 231° Southwest  Level Estimated
02:43AM 27.0270 123.8107 231° Southwest  Level Estimated
02:44AM 26.9579 123.7167 230° Southwest  Level Estimated
02:45AM 26.8887 123.6228 230° Southwest  Level Estimated
02:46AM 26.8194 123.5291 230° Southwest  Level Estimated
02:47AM 26.7501 123.4355 230° Southwest  Level Estimated
02:48AM 26.6807 123.3419 230° Southwest  Level Estimated
02:49AM 26.6113 123.2485 230° Southwest  Level Estimated
02:50AM 26.5418 123.1552 230° Southwest  Level Estimated
02:51AM 26.4723 123.0620 230° Southwest  Level Estimated
02:52AM 26.4027 122.9690 230° Southwest  Level Estimated
02:53AM 26.3330 122.8760 230° Southwest  Level Estimated
02:54AM 26.2633 122.7831 230° Southwest  Level Estimated
02:55AM 26.1935 122.6904 230° Southwest  Level Estimated
02:56AM 26.1236 122.5978 230° Southwest  Level Estimated
02:57AM 26.0537 122.5053 230° Southwest  Level Estimated
02:58AM 25.9837 122.4129 230° Southwest  Level Estimated
02:59AM 25.9137 122.3206 230° Southwest  Level Estimated
03:00AM 25.8436 122.2284 230° Southwest  Level Estimated
03:01AM 25.7735 122.1363 230° Southwest  Level Estimated
03:02AM 25.7033 122.0443 230° Southwest  Level Estimated
03:03AM 25.6330 121.9525 230° Southwest  Level Estimated
03:04AM 25.5627 121.8607 230° Southwest  Level Estimated
03:05AM 25.4923 121.7691 230° Southwest  Level Estimated
03:06AM 25.4219 121.6775 230° Southwest  Level Estimated
03:07AM 25.3514 121.5861 230° Southwest  Level Estimated
03:08AM 25.2809 121.4948 230° Southwest  Level Estimated
03:09AM 25.2103 121.4036 229° Southwest  Level Estimated
03:10AM 25.1396 121.3125 229° Southwest  Level Estimated
03:11AM 25.0777 121.2328 229° Southwest  Level Estimated
03:12AM 25.0777 121.2328 61° Northeast  Level Estimated
03:13AM 25.0777 121.2328 61° Northeast  Level Estimated
03:14AM 25.0777 121.2328 61° Northeast  Level Estimated
03:15AM 25.0777 121.2328 61° Northeast  Level Estimated
03:16AM 25.0777 121.2328 61° Northeast  Level Estimated
03:17AM 25.0777 121.2328 61° Northeast  Level Estimated
03:18AM 25.0777 121.2328 61° Northeast  Level Estimated
03:19AM 25.0777 121.2328 61° Northeast  Level Estimated
03:20AM 25.0777 121.2328 61° Northeast  Level Estimated
03:21AM 25.0777 121.2328 61° Northeast  Level Estimated
03:22AM 25.0777 121.2328 61° Northeast  Level Estimated
03:23AM 25.0777 121.2328 61° Northeast  Level Estimated
03:24AM 25.0777 121.2328 61° Northeast  Level Estimated
03:25AM 25.0777 121.2328 61° Northeast  Level Estimated
03:26AM 25.0777 121.2328 61° Northeast  Level Estimated
03:27AM 25.0777 121.2328 61° Northeast  Level Estimated
03:28AM 25.0777 121.2328 61° Northeast  Level Estimated
03:29AM 25.0777 121.2328 61° Northeast  Level Estimated
03:30AM 25.0777 121.2328 61° Northeast  Level Estimated
03:31AM 25.0777 121.2328 61° Northeast  Level Estimated
03:32AM 25.0777 121.2328 61° Northeast  Level Estimated
03:33AM 25.0777 121.2328 61° Northeast  Level Estimated
03:34AM 25.0777 121.2328 61° Northeast  Level Estimated
03:35AM 25.0777 121.2328 61° Northeast  Level Estimated
03:36AM 25.0777 121.2328 61° Northeast  Level Estimated
03:37AM 25.0777 121.2328 61° Northeast  Level Estimated
03:38AM 25.0777 121.2328 61° Northeast  Level Estimated
03:39AM 25.0777 121.2328 61° Northeast  Level Estimated
03:40AM 25.0777 121.2328 61° Northeast  Level Estimated
03:41AM 25.0777 121.2328 61° Northeast  Level Estimated
03:42AM 25.0777 121.2328 61° Northeast  Level Estimated
03:43AM 25.0777 121.2328 61° Northeast  Level Estimated
03:44AM 25.0777 121.2328 61° Northeast  Level Estimated
03:45AM 25.0777 121.2328 61° Northeast  Level Estimated
03:46AM 25.0777 121.2328 61° Northeast  Level Estimated
03:47AM 25.0777 121.2328 61° Northeast  Level Estimated
03:48AM 25.0777 121.2328 61° Northeast  Level Estimated
03:49AM 25.0777 121.2328 61° Northeast  Level Estimated
03:50AM 25.0777 121.2328 61° Northeast  Level Estimated
03:51AM 25.0777 121.2328 61° Northeast  Level Estimated
03:52AM 25.0777 121.2328 61° Northeast  Level Estimated
03:53AM 25.0777 121.2328 61° Northeast  Level Estimated
03:54AM 25.0777 121.2328 61° Northeast  Level Estimated
03:55AM 25.0777 121.2328 61° Northeast  Level Estimated
03:56AM 25.0777 121.2328 61° Northeast  Level Estimated
03:57AM 25.0777 121.2328 61° Northeast  Level Estimated
03:58AM 25.0777 121.2328 61° Northeast  Level Estimated
03:59AM 25.0777 121.2328 61° Northeast  Level Estimated
04:00AM 25.0777 121.2328 61° Northeast  Level Estimated
04:01AM 25.0777 121.2328 61° Northeast  Level Estimated
04:02AM 25.0777 121.2328 61° Northeast  Level Estimated
04:03AM 25.0777 121.2328 61° Northeast  Level Estimated
04:04AM 25.0777 121.2328 61° Northeast  Level Estimated
04:05AM 25.0777 121.2328 61° Northeast  Level Estimated
04:06AM 25.0777 121.2328 61° Northeast  Level Estimated
04:07AM 25.0777 121.2328 61° Northeast  Level Estimated
04:08AM 25.0777 121.2328 61° Northeast  Level Estimated